sensor_id;sensor_type;location;lat;lon;timestamp;P1;durP1;ratioP1;P2;durP2;ratioP2
18726;SDS011;9492;51.888;5.186;2022-08-21T00:00:25;4.00;;;2.97;;
18726;SDS011;9492;51.888;5.186;2022-08-21T00:02:53;5.77;;;3.67;;
18726;SDS011;9492;51.888;5.186;2022-08-21T00:05:19;4.27;;;3.00;;
18726;SDS011;9492;51.888;5.186;2022-08-21T00:07:45;3.60;;;3.30;;
18726;SDS011;9492;51.888;5.186;2022-08-21T00:10:12;4.20;;;3.80;;
18726;SDS011;9492;51.888;5.186;2022-08-21T00:12:38;4.13;;;3.37;;
18726;SDS011;9492;51.888;5.186;2022-08-21T00:15:06;4.27;;;3.33;;
18726;SDS011;9492;51.888;5.186;2022-08-21T00:17:32;3.73;;;3.20;;
18726;SDS011;9492;51.888;5.186;2022-08-21T00:20:00;4.83;;;3.27;;
18726;SDS011;9492;51.888;5.186;2022-08-21T00:22:29;4.40;;;3.30;;
18726;SDS011;9492;51.888;5.186;2022-08-21T00:24:55;5.67;;;3.50;;
18726;SDS011;9492;51.888;5.186;2022-08-21T00:27:21;6.50;;;3.43;;
18726;SDS011;9492;51.888;5.186;2022-08-21T00:29:47;5.20;;;3.53;;
18726;SDS011;9492;51.888;5.186;2022-08-21T00:32:18;5.33;;;3.20;;
18726;SDS011;9492;51.888;5.186;2022-08-21T00:34:44;3.97;;;3.17;;
18726;SDS011;9492;51.888;5.186;2022-08-21T00:37:10;4.57;;;3.30;;
18726;SDS011;9492;51.888;5.186;2022-08-21T00:39:36;4.43;;;3.17;;
18726;SDS011;9492;51.888;5.186;2022-08-21T00:42:02;3.43;;;2.60;;
18726;SDS011;9492;51.888;5.186;2022-08-21T00:44:28;5.43;;;3.03;;
18726;SDS011;9492;51.888;5.186;2022-08-21T00:46:56;4.77;;;3.50;;
18726;SDS011;9492;51.888;5.186;2022-08-21T00:49:22;5.50;;;3.40;;
18726;SDS011;9492;51.888;5.186;2022-08-21T00:51:49;4.80;;;3.13;;
18726;SDS011;9492;51.888;5.186;2022-08-21T00:54:15;6.10;;;3.17;;
18726;SDS011;9492;51.888;5.186;2022-08-21T00:56:42;3.63;;;3.00;;
18726;SDS011;9492;51.888;5.186;2022-08-21T00:59:08;4.30;;;2.80;;
18726;SDS011;9492;51.888;5.186;2022-08-21T01:01:35;6.77;;;3.50;;
18726;SDS011;9492;51.888;5.186;2022-08-21T01:04:01;6.63;;;3.60;;
18726;SDS011;9492;51.888;5.186;2022-08-21T01:06:27;6.87;;;3.50;;
18726;SDS011;9492;51.888;5.186;2022-08-21T01:08:53;5.53;;;3.40;;
18726;SDS011;9492;51.888;5.186;2022-08-21T01:11:20;4.93;;;3.70;;
18726;SDS011;9492;51.888;5.186;2022-08-21T01:13:46;3.60;;;3.27;;
18726;SDS011;9492;51.888;5.186;2022-08-21T01:16:14;4.17;;;2.87;;
18726;SDS011;9492;51.888;5.186;2022-08-21T01:18:41;4.13;;;3.00;;
18726;SDS011;9492;51.888;5.186;2022-08-21T01:23:33;4.37;;;3.33;;
18726;SDS011;9492;51.888;5.186;2022-08-21T01:26:00;4.43;;;2.73;;
18726;SDS011;9492;51.888;5.186;2022-08-21T01:28:26;3.37;;;2.83;;
18726;SDS011;9492;51.888;5.186;2022-08-21T01:30:52;4.27;;;2.80;;
18726;SDS011;9492;51.888;5.186;2022-08-21T01:33:19;3.80;;;2.80;;
18726;SDS011;9492;51.888;5.186;2022-08-21T01:35:46;4.07;;;2.97;;
18726;SDS011;9492;51.888;5.186;2022-08-21T01:38:12;4.67;;;3.13;;
18726;SDS011;9492;51.888;5.186;2022-08-21T01:40:38;5.57;;;3.27;;
18726;SDS011;9492;51.888;5.186;2022-08-21T01:43:04;4.80;;;3.03;;
18726;SDS011;9492;51.888;5.186;2022-08-21T01:45:30;4.90;;;3.17;;
18726;SDS011;9492;51.888;5.186;2022-08-21T01:47:56;4.67;;;3.30;;
18726;SDS011;9492;51.888;5.186;2022-08-21T01:50:22;4.13;;;3.00;;
18726;SDS011;9492;51.888;5.186;2022-08-21T01:52:48;5.83;;;3.30;;
18726;SDS011;9492;51.888;5.186;2022-08-21T01:55:15;4.90;;;3.30;;
18726;SDS011;9492;51.888;5.186;2022-08-21T01:57:41;4.77;;;3.33;;
18726;SDS011;9492;51.888;5.186;2022-08-21T02:00:09;5.60;;;3.10;;
18726;SDS011;9492;51.888;5.186;2022-08-21T02:02:36;6.03;;;3.53;;
18726;SDS011;9492;51.888;5.186;2022-08-21T02:05:02;3.90;;;3.10;;
18726;SDS011;9492;51.888;5.186;2022-08-21T02:07:34;9.43;;;4.33;;
18726;SDS011;9492;51.888;5.186;2022-08-21T02:10:00;5.70;;;3.40;;
18726;SDS011;9492;51.888;5.186;2022-08-21T02:12:26;4.23;;;3.33;;
18726;SDS011;9492;51.888;5.186;2022-08-21T02:14:52;7.33;;;4.00;;
18726;SDS011;9492;51.888;5.186;2022-08-21T02:17:18;5.40;;;3.90;;
18726;SDS011;9492;51.888;5.186;2022-08-21T02:19:44;4.53;;;3.60;;
18726;SDS011;9492;51.888;5.186;2022-08-21T02:22:10;5.27;;;3.57;;
18726;SDS011;9492;51.888;5.186;2022-08-21T02:24:37;3.43;;;2.73;;
18726;SDS011;9492;51.888;5.186;2022-08-21T02:27:03;5.33;;;3.20;;
18726;SDS011;9492;51.888;5.186;2022-08-21T02:29:29;5.00;;;3.47;;
18726;SDS011;9492;51.888;5.186;2022-08-21T02:31:55;5.23;;;3.83;;
18726;SDS011;9492;51.888;5.186;2022-08-21T02:34:21;6.17;;;4.20;;
18726;SDS011;9492;51.888;5.186;2022-08-21T02:36:47;5.77;;;3.73;;
18726;SDS011;9492;51.888;5.186;2022-08-21T02:39:14;5.13;;;4.00;;
18726;SDS011;9492;51.888;5.186;2022-08-21T02:41:40;4.83;;;3.67;;
18726;SDS011;9492;51.888;5.186;2022-08-21T02:44:06;7.20;;;3.93;;
18726;SDS011;9492;51.888;5.186;2022-08-21T02:46:31;6.10;;;3.90;;
18726;SDS011;9492;51.888;5.186;2022-08-21T02:48:57;5.97;;;3.73;;
18726;SDS011;9492;51.888;5.186;2022-08-21T02:51:23;6.77;;;3.90;;
18726;SDS011;9492;51.888;5.186;2022-08-21T02:53:49;4.43;;;4.00;;
18726;SDS011;9492;51.888;5.186;2022-08-21T02:56:17;7.30;;;3.90;;
18726;SDS011;9492;51.888;5.186;2022-08-21T02:58:45;6.97;;;3.87;;
18726;SDS011;9492;51.888;5.186;2022-08-21T03:01:11;5.27;;;3.37;;
18726;SDS011;9492;51.888;5.186;2022-08-21T03:03:38;4.37;;;3.20;;
18726;SDS011;9492;51.888;5.186;2022-08-21T03:06:06;7.17;;;3.97;;
18726;SDS011;9492;51.888;5.186;2022-08-21T03:08:33;6.47;;;3.90;;
18726;SDS011;9492;51.888;5.186;2022-08-21T03:10:59;5.07;;;4.07;;
18726;SDS011;9492;51.888;5.186;2022-08-21T03:13:26;6.57;;;4.37;;
18726;SDS011;9492;51.888;5.186;2022-08-21T03:15:53;4.00;;;3.47;;
18726;SDS011;9492;51.888;5.186;2022-08-21T03:18:19;6.87;;;3.90;;
18726;SDS011;9492;51.888;5.186;2022-08-21T03:20:45;6.80;;;4.57;;
18726;SDS011;9492;51.888;5.186;2022-08-21T03:23:11;7.13;;;3.83;;
18726;SDS011;9492;51.888;5.186;2022-08-21T03:25:37;5.77;;;4.30;;
18726;SDS011;9492;51.888;5.186;2022-08-21T03:28:05;6.57;;;5.07;;
18726;SDS011;9492;51.888;5.186;2022-08-21T03:30:31;6.57;;;4.83;;
18726;SDS011;9492;51.888;5.186;2022-08-21T03:32:58;8.77;;;4.90;;
18726;SDS011;9492;51.888;5.186;2022-08-21T03:35:24;7.20;;;4.47;;
18726;SDS011;9492;51.888;5.186;2022-08-21T03:37:50;10.60;;;4.77;;
18726;SDS011;9492;51.888;5.186;2022-08-21T03:40:16;7.03;;;4.77;;
18726;SDS011;9492;51.888;5.186;2022-08-21T03:42:43;6.77;;;4.77;;
18726;SDS011;9492;51.888;5.186;2022-08-21T03:45:12;6.60;;;4.40;;
18726;SDS011;9492;51.888;5.186;2022-08-21T03:47:38;7.13;;;4.57;;
18726;SDS011;9492;51.888;5.186;2022-08-21T03:50:05;7.73;;;4.07;;
18726;SDS011;9492;51.888;5.186;2022-08-21T03:52:32;4.93;;;4.10;;
18726;SDS011;9492;51.888;5.186;2022-08-21T03:54:59;7.20;;;3.90;;
18726;SDS011;9492;51.888;5.186;2022-08-21T03:57:24;7.07;;;4.23;;
18726;SDS011;9492;51.888;5.186;2022-08-21T03:59:50;10.07;;;4.53;;
18726;SDS011;9492;51.888;5.186;2022-08-21T04:02:17;7.23;;;4.70;;
18726;SDS011;9492;51.888;5.186;2022-08-21T04:04:45;8.13;;;5.17;;
18726;SDS011;9492;51.888;5.186;2022-08-21T04:07:11;8.17;;;5.07;;
18726;SDS011;9492;51.888;5.186;2022-08-21T04:09:37;10.03;;;5.30;;
18726;SDS011;9492;51.888;5.186;2022-08-21T04:12:03;7.83;;;5.03;;
18726;SDS011;9492;51.888;5.186;2022-08-21T04:14:30;7.37;;;4.80;;
18726;SDS011;9492;51.888;5.186;2022-08-21T04:16:56;6.57;;;4.93;;
18726;SDS011;9492;51.888;5.186;2022-08-21T04:19:22;7.03;;;4.37;;
18726;SDS011;9492;51.888;5.186;2022-08-21T04:21:48;5.23;;;4.27;;
18726;SDS011;9492;51.888;5.186;2022-08-21T04:24:14;5.77;;;4.30;;
18726;SDS011;9492;51.888;5.186;2022-08-21T04:26:41;8.73;;;4.80;;
18726;SDS011;9492;51.888;5.186;2022-08-21T04:29:07;8.53;;;5.27;;
18726;SDS011;9492;51.888;5.186;2022-08-21T04:31:33;8.00;;;4.40;;
18726;SDS011;9492;51.888;5.186;2022-08-21T04:34:01;4.77;;;4.27;;
18726;SDS011;9492;51.888;5.186;2022-08-21T04:36:27;7.17;;;4.73;;
18726;SDS011;9492;51.888;5.186;2022-08-21T04:38:53;5.40;;;4.63;;
18726;SDS011;9492;51.888;5.186;2022-08-21T04:41:19;6.93;;;4.40;;
18726;SDS011;9492;51.888;5.186;2022-08-21T04:43:45;5.47;;;4.30;;
18726;SDS011;9492;51.888;5.186;2022-08-21T04:46:11;6.00;;;4.63;;
18726;SDS011;9492;51.888;5.186;2022-08-21T04:48:37;4.37;;;3.83;;
18726;SDS011;9492;51.888;5.186;2022-08-21T04:56:06;6.53;;;5.80;;
18726;SDS011;9492;51.888;5.186;2022-08-21T04:58:33;6.53;;;4.10;;
18726;SDS011;9492;51.888;5.186;2022-08-21T05:01:00;5.20;;;3.73;;
18726;SDS011;9492;51.888;5.186;2022-08-21T05:03:26;6.00;;;3.80;;
18726;SDS011;9492;51.888;5.186;2022-08-21T05:05:53;5.67;;;4.07;;
18726;SDS011;9492;51.888;5.186;2022-08-21T05:08:19;6.07;;;4.17;;
18726;SDS011;9492;51.888;5.186;2022-08-21T05:10:46;6.27;;;3.90;;
18726;SDS011;9492;51.888;5.186;2022-08-21T05:13:13;7.33;;;4.60;;
18726;SDS011;9492;51.888;5.186;2022-08-21T05:15:39;7.07;;;4.70;;
18726;SDS011;9492;51.888;5.186;2022-08-21T05:18:05;5.37;;;4.00;;
18726;SDS011;9492;51.888;5.186;2022-08-21T05:20:31;7.23;;;3.37;;
18726;SDS011;9492;51.888;5.186;2022-08-21T05:22:59;5.53;;;3.70;;
18726;SDS011;9492;51.888;5.186;2022-08-21T05:25:25;6.53;;;3.87;;
18726;SDS011;9492;51.888;5.186;2022-08-21T05:27:51;10.47;;;4.73;;
18726;SDS011;9492;51.888;5.186;2022-08-21T05:30:18;5.47;;;3.40;;
18726;SDS011;9492;51.888;5.186;2022-08-21T05:32:44;5.10;;;3.47;;
18726;SDS011;9492;51.888;5.186;2022-08-21T05:35:10;6.60;;;3.63;;
18726;SDS011;9492;51.888;5.186;2022-08-21T05:37:36;6.57;;;3.80;;
18726;SDS011;9492;51.888;5.186;2022-08-21T05:40:03;4.43;;;3.50;;
18726;SDS011;9492;51.888;5.186;2022-08-21T05:42:29;5.77;;;3.97;;
18726;SDS011;9492;51.888;5.186;2022-08-21T05:44:55;6.30;;;3.43;;
18726;SDS011;9492;51.888;5.186;2022-08-21T05:47:21;8.57;;;3.53;;
18726;SDS011;9492;51.888;5.186;2022-08-21T05:49:47;7.17;;;4.37;;
18726;SDS011;9492;51.888;5.186;2022-08-21T05:52:18;5.07;;;3.73;;
18726;SDS011;9492;51.888;5.186;2022-08-21T05:54:44;5.93;;;3.50;;
18726;SDS011;9492;51.888;5.186;2022-08-21T05:57:10;5.90;;;3.47;;
18726;SDS011;9492;51.888;5.186;2022-08-21T05:59:35;6.93;;;3.70;;
18726;SDS011;9492;51.888;5.186;2022-08-21T06:02:02;9.37;;;3.90;;
18726;SDS011;9492;51.888;5.186;2022-08-21T06:04:28;8.83;;;4.00;;
18726;SDS011;9492;51.888;5.186;2022-08-21T06:06:55;6.60;;;3.80;;
18726;SDS011;9492;51.888;5.186;2022-08-21T06:09:21;8.03;;;3.47;;
18726;SDS011;9492;51.888;5.186;2022-08-21T06:11:46;6.90;;;3.90;;
18726;SDS011;9492;51.888;5.186;2022-08-21T06:14:16;7.37;;;4.10;;
18726;SDS011;9492;51.888;5.186;2022-08-21T06:16:41;5.53;;;3.70;;
18726;SDS011;9492;51.888;5.186;2022-08-21T06:19:07;4.50;;;2.90;;
18726;SDS011;9492;51.888;5.186;2022-08-21T06:21:33;4.43;;;3.43;;
18726;SDS011;9492;51.888;5.186;2022-08-21T06:23:59;6.87;;;4.53;;
18726;SDS011;9492;51.888;5.186;2022-08-21T06:26:25;7.63;;;3.40;;
18726;SDS011;9492;51.888;5.186;2022-08-21T06:28:52;4.67;;;3.47;;
18726;SDS011;9492;51.888;5.186;2022-08-21T06:31:20;5.65;;;3.70;;
18726;SDS011;9492;51.888;5.186;2022-08-21T06:33:47;6.32;;;3.40;;
18726;SDS011;9492;51.888;5.186;2022-08-21T06:36:13;7.72;;;3.88;;
18726;SDS011;9492;51.888;5.186;2022-08-21T06:38:39;6.78;;;3.80;;
18726;SDS011;9492;51.888;5.186;2022-08-21T06:41:05;8.13;;;3.63;;
18726;SDS011;9492;51.888;5.186;2022-08-21T06:43:31;6.13;;;3.33;;
18726;SDS011;9492;51.888;5.186;2022-08-21T06:45:57;8.93;;;3.80;;
18726;SDS011;9492;51.888;5.186;2022-08-21T06:48:23;9.85;;;4.50;;
18726;SDS011;9492;51.888;5.186;2022-08-21T06:50:49;7.82;;;4.25;;
18726;SDS011;9492;51.888;5.186;2022-08-21T06:53:17;7.72;;;3.47;;
18726;SDS011;9492;51.888;5.186;2022-08-21T06:55:43;8.55;;;4.05;;
18726;SDS011;9492;51.888;5.186;2022-08-21T06:58:10;10.88;;;3.90;;
18726;SDS011;9492;51.888;5.186;2022-08-21T07:00:40;6.10;;;4.00;;
18726;SDS011;9492;51.888;5.186;2022-08-21T07:03:06;9.18;;;4.22;;
18726;SDS011;9492;51.888;5.186;2022-08-21T07:05:33;6.28;;;3.42;;
18726;SDS011;9492;51.888;5.186;2022-08-21T07:07:59;9.70;;;3.90;;
18726;SDS011;9492;51.888;5.186;2022-08-21T07:10:25;7.40;;;3.42;;
18726;SDS011;9492;51.888;5.186;2022-08-21T07:12:52;8.43;;;4.00;;
18726;SDS011;9492;51.888;5.186;2022-08-21T07:15:19;6.45;;;3.50;;
18726;SDS011;9492;51.888;5.186;2022-08-21T07:17:45;6.18;;;4.05;;
18726;SDS011;9492;51.888;5.186;2022-08-21T07:20:11;5.95;;;3.80;;
18726;SDS011;9492;51.888;5.186;2022-08-21T07:22:38;8.15;;;4.03;;
18726;SDS011;9492;51.888;5.186;2022-08-21T07:25:04;9.95;;;3.53;;
18726;SDS011;9492;51.888;5.186;2022-08-21T07:27:31;8.68;;;3.70;;
18726;SDS011;9492;51.888;5.186;2022-08-21T07:29:57;7.40;;;3.53;;
18726;SDS011;9492;51.888;5.186;2022-08-21T07:32:23;9.90;;;3.47;;
18726;SDS011;9492;51.888;5.186;2022-08-21T07:34:50;7.15;;;3.53;;
18726;SDS011;9492;51.888;5.186;2022-08-21T07:37:16;6.47;;;3.58;;
18726;SDS011;9492;51.888;5.186;2022-08-21T07:39:42;8.43;;;3.95;;
18726;SDS011;9492;51.888;5.186;2022-08-21T07:42:09;8.98;;;4.20;;
18726;SDS011;9492;51.888;5.186;2022-08-21T07:44:35;8.40;;;3.90;;
18726;SDS011;9492;51.888;5.186;2022-08-21T07:47:01;7.25;;;3.60;;
18726;SDS011;9492;51.888;5.186;2022-08-21T07:49:27;7.65;;;3.40;;
18726;SDS011;9492;51.888;5.186;2022-08-21T07:51:53;7.65;;;3.58;;
18726;SDS011;9492;51.888;5.186;2022-08-21T07:54:20;5.32;;;3.28;;
18726;SDS011;9492;51.888;5.186;2022-08-21T07:56:46;9.80;;;3.90;;
18726;SDS011;9492;51.888;5.186;2022-08-21T07:59:11;8.60;;;3.83;;
18726;SDS011;9492;51.888;5.186;2022-08-21T08:01:38;7.97;;;3.40;;
18726;SDS011;9492;51.888;5.186;2022-08-21T08:04:04;9.23;;;3.20;;
18726;SDS011;9492;51.888;5.186;2022-08-21T08:06:30;5.35;;;3.50;;
18726;SDS011;9492;51.888;5.186;2022-08-21T08:08:56;8.50;;;3.10;;
18726;SDS011;9492;51.888;5.186;2022-08-21T08:11:22;7.05;;;3.42;;
18726;SDS011;9492;51.888;5.186;2022-08-21T08:13:50;5.72;;;2.70;;
18726;SDS011;9492;51.888;5.186;2022-08-21T08:16:16;7.85;;;3.83;;
18726;SDS011;9492;51.888;5.186;2022-08-21T08:18:42;10.60;;;3.58;;
18726;SDS011;9492;51.888;5.186;2022-08-21T08:21:10;11.60;;;4.13;;
18726;SDS011;9492;51.888;5.186;2022-08-21T08:23:36;5.90;;;3.03;;
18726;SDS011;9492;51.888;5.186;2022-08-21T08:26:02;8.52;;;3.22;;
18726;SDS011;9492;51.888;5.186;2022-08-21T08:28:28;8.13;;;3.55;;
18726;SDS011;9492;51.888;5.186;2022-08-21T08:30:55;7.47;;;2.90;;
18726;SDS011;9492;51.888;5.186;2022-08-21T08:33:21;5.78;;;3.17;;
18726;SDS011;9492;51.888;5.186;2022-08-21T08:35:48;8.05;;;3.17;;
18726;SDS011;9492;51.888;5.186;2022-08-21T08:38:15;8.68;;;3.35;;
18726;SDS011;9492;51.888;5.186;2022-08-21T08:40:50;7.82;;;3.03;;
18726;SDS011;9492;51.888;5.186;2022-08-21T08:43:18;6.13;;;2.95;;
18726;SDS011;9492;51.888;5.186;2022-08-21T08:45:46;6.47;;;3.58;;
18726;SDS011;9492;51.888;5.186;2022-08-21T08:48:14;7.25;;;3.03;;
18726;SDS011;9492;51.888;5.186;2022-08-21T08:50:47;8.75;;;2.95;;
18726;SDS011;9492;51.888;5.186;2022-08-21T08:53:15;7.32;;;3.20;;
18726;SDS011;9492;51.888;5.186;2022-08-21T08:55:43;8.82;;;3.35;;
18726;SDS011;9492;51.888;5.186;2022-08-21T08:58:16;6.35;;;2.63;;
18726;SDS011;9492;51.888;5.186;2022-08-21T09:00:44;6.55;;;2.75;;
18726;SDS011;9492;51.888;5.186;2022-08-21T09:03:12;6.75;;;2.90;;
18726;SDS011;9492;51.888;5.186;2022-08-21T09:05:45;6.93;;;3.08;;
18726;SDS011;9492;51.888;5.186;2022-08-21T09:08:20;4.85;;;2.38;;
18726;SDS011;9492;51.888;5.186;2022-08-21T09:21:26;7.45;;;3.03;;
18726;SDS011;9492;51.888;5.186;2022-08-21T09:26:21;10.13;;;2.85;;
18726;SDS011;9492;51.888;5.186;2022-08-21T09:28:52;6.95;;;2.90;;
18726;SDS011;9492;51.888;5.186;2022-08-21T09:31:24;7.40;;;2.63;;
18726;SDS011;9492;51.888;5.186;2022-08-21T09:33:56;7.15;;;2.80;;
18726;SDS011;9492;51.888;5.186;2022-08-21T09:36:28;8.80;;;2.40;;
18726;SDS011;9492;51.888;5.186;2022-08-21T09:38:56;8.15;;;2.40;;
18726;SDS011;9492;51.888;5.186;2022-08-21T09:41:26;6.30;;;2.15;;
18726;SDS011;9492;51.888;5.186;2022-08-21T09:43:53;7.30;;;2.35;;
18726;SDS011;9492;51.888;5.186;2022-08-21T09:46:20;6.13;;;2.30;;
18726;SDS011;9492;51.888;5.186;2022-08-21T09:48:51;10.10;;;2.83;;
18726;SDS011;9492;51.888;5.186;2022-08-21T09:51:18;5.90;;;1.98;;
18726;SDS011;9492;51.888;5.186;2022-08-21T09:53:46;7.25;;;2.38;;
18726;SDS011;9492;51.888;5.186;2022-08-21T09:56:51;7.65;;;2.17;;
18726;SDS011;9492;51.888;5.186;2022-08-21T09:59:33;7.13;;;2.45;;
18726;SDS011;9492;51.888;5.186;2022-08-21T10:02:00;6.63;;;2.13;;
18726;SDS011;9492;51.888;5.186;2022-08-21T10:04:28;7.10;;;2.50;;
18726;SDS011;9492;51.888;5.186;2022-08-21T10:07:05;7.57;;;2.20;;
18726;SDS011;9492;51.888;5.186;2022-08-21T10:09:31;7.13;;;2.00;;
18726;SDS011;9492;51.888;5.186;2022-08-21T10:11:59;6.78;;;2.40;;
18726;SDS011;9492;51.888;5.186;2022-08-21T10:19:46;6.75;;;2.65;;
18726;SDS011;9492;51.888;5.186;2022-08-21T10:22:17;3.75;;;2.00;;
18726;SDS011;9492;51.888;5.186;2022-08-21T10:29:50;6.17;;;2.73;;
18726;SDS011;9492;51.888;5.186;2022-08-21T10:32:24;6.72;;;2.13;;
18726;SDS011;9492;51.888;5.186;2022-08-21T10:35:13;10.05;;;2.75;;
18726;SDS011;9492;51.888;5.186;2022-08-21T10:48:13;4.45;;;1.95;;
18726;SDS011;9492;51.888;5.186;2022-08-21T10:50:42;4.32;;;1.90;;
18726;SDS011;9492;51.888;5.186;2022-08-21T10:55:55;4.78;;;1.50;;
18726;SDS011;9492;51.888;5.186;2022-08-21T10:58:37;4.35;;;1.50;;
18726;SDS011;9492;51.888;5.186;2022-08-21T11:01:11;6.40;;;1.90;;
18726;SDS011;9492;51.888;5.186;2022-08-21T11:03:42;4.07;;;1.58;;
18726;SDS011;9492;51.888;5.186;2022-08-21T11:06:11;4.20;;;1.80;;
18726;SDS011;9492;51.888;5.186;2022-08-21T11:08:39;4.63;;;1.70;;
18726;SDS011;9492;51.888;5.186;2022-08-21T11:11:14;5.00;;;1.63;;
18726;SDS011;9492;51.888;5.186;2022-08-21T11:13:43;4.88;;;2.15;;
18726;SDS011;9492;51.888;5.186;2022-08-21T11:19:09;4.45;;;1.60;;
18726;SDS011;9492;51.888;5.186;2022-08-21T11:26:53;4.57;;;1.73;;
18726;SDS011;9492;51.888;5.186;2022-08-21T11:29:24;4.22;;;1.80;;
18726;SDS011;9492;51.888;5.186;2022-08-21T11:34:34;4.40;;;1.73;;
18726;SDS011;9492;51.888;5.186;2022-08-21T11:42:21;4.70;;;1.65;;
18726;SDS011;9492;51.888;5.186;2022-08-21T11:47:40;3.20;;;1.33;;
18726;SDS011;9492;51.888;5.186;2022-08-21T11:52:40;3.28;;;1.52;;
18726;SDS011;9492;51.888;5.186;2022-08-21T11:57:55;3.58;;;1.23;;
18726;SDS011;9492;51.888;5.186;2022-08-21T12:00:25;2.13;;;1.52;;
18726;SDS011;9492;51.888;5.186;2022-08-21T12:02:54;5.35;;;1.63;;
18726;SDS011;9492;51.888;5.186;2022-08-21T12:08:04;4.97;;;1.48;;
18726;SDS011;9492;51.888;5.186;2022-08-21T12:11:22;4.22;;;1.35;;
18726;SDS011;9492;51.888;5.186;2022-08-21T12:13:27;4.53;;;1.70;;
18726;SDS011;9492;51.888;5.186;2022-08-21T12:16:04;3.85;;;1.70;;
18726;SDS011;9492;51.888;5.186;2022-08-21T12:18:30;5.38;;;1.60;;
18726;SDS011;9492;51.888;5.186;2022-08-21T12:23:59;5.75;;;1.92;;
18726;SDS011;9492;51.888;5.186;2022-08-21T12:26:26;3.95;;;1.27;;
18726;SDS011;9492;51.888;5.186;2022-08-21T12:29:12;4.97;;;1.63;;
18726;SDS011;9492;51.888;5.186;2022-08-21T12:32:22;3.67;;;1.67;;
18726;SDS011;9492;51.888;5.186;2022-08-21T12:34:39;3.65;;;1.40;;
18726;SDS011;9492;51.888;5.186;2022-08-21T12:37:14;4.38;;;1.88;;
18726;SDS011;9492;51.888;5.186;2022-08-21T12:39:43;9.35;;;2.10;;
18726;SDS011;9492;51.888;5.186;2022-08-21T12:42:34;3.75;;;1.58;;
18726;SDS011;9492;51.888;5.186;2022-08-21T12:44:58;3.40;;;1.40;;
18726;SDS011;9492;51.888;5.186;2022-08-21T12:47:45;5.65;;;1.73;;
18726;SDS011;9492;51.888;5.186;2022-08-21T12:50:15;3.53;;;1.90;;
18726;SDS011;9492;51.888;5.186;2022-08-21T12:55:29;4.43;;;1.58;;
18726;SDS011;9492;51.888;5.186;2022-08-21T12:57:56;4.07;;;1.40;;
18726;SDS011;9492;51.888;5.186;2022-08-21T13:00:23;6.70;;;1.50;;
18726;SDS011;9492;51.888;5.186;2022-08-21T13:02:49;6.13;;;1.65;;
18726;SDS011;9492;51.888;5.186;2022-08-21T13:05:35;5.57;;;2.00;;
18726;SDS011;9492;51.888;5.186;2022-08-21T13:08:05;5.63;;;1.42;;
18726;SDS011;9492;51.888;5.186;2022-08-21T13:10:33;3.38;;;1.50;;
18726;SDS011;9492;51.888;5.186;2022-08-21T13:13:01;3.42;;;1.70;;
18726;SDS011;9492;51.888;5.186;2022-08-21T13:15:31;5.15;;;1.50;;
18726;SDS011;9492;51.888;5.186;2022-08-21T13:17:57;4.90;;;1.70;;
18726;SDS011;9492;51.888;5.186;2022-08-21T13:20:38;3.55;;;1.50;;
18726;SDS011;9492;51.888;5.186;2022-08-21T13:23:07;4.68;;;1.67;;
18726;SDS011;9492;51.888;5.186;2022-08-21T13:25:34;4.72;;;1.77;;
18726;SDS011;9492;51.888;5.186;2022-08-21T13:30:30;4.05;;;1.08;;
18726;SDS011;9492;51.888;5.186;2022-08-21T13:33:01;5.93;;;1.73;;
18726;SDS011;9492;51.888;5.186;2022-08-21T13:37:53;2.85;;;1.45;;
18726;SDS011;9492;51.888;5.186;2022-08-21T13:40:23;4.95;;;1.52;;
18726;SDS011;9492;51.888;5.186;2022-08-21T13:42:50;3.35;;;1.30;;
18726;SDS011;9492;51.888;5.186;2022-08-21T13:45:26;3.75;;;1.35;;
18726;SDS011;9492;51.888;5.186;2022-08-21T13:47:53;4.15;;;1.65;;
18726;SDS011;9492;51.888;5.186;2022-08-21T13:50:20;3.20;;;1.33;;
18726;SDS011;9492;51.888;5.186;2022-08-21T13:52:49;4.18;;;1.50;;
18726;SDS011;9492;51.888;5.186;2022-08-21T13:55:19;6.75;;;1.35;;
18726;SDS011;9492;51.888;5.186;2022-08-21T13:57:45;3.10;;;1.20;;
18726;SDS011;9492;51.888;5.186;2022-08-21T14:00:18;6.03;;;1.67;;
18726;SDS011;9492;51.888;5.186;2022-08-21T14:02:46;4.00;;;1.48;;
18726;SDS011;9492;51.888;5.186;2022-08-21T14:05:14;5.22;;;1.60;;
18726;SDS011;9492;51.888;5.186;2022-08-21T14:07:41;2.25;;;1.40;;
18726;SDS011;9492;51.888;5.186;2022-08-21T14:10:13;3.90;;;1.40;;
18726;SDS011;9492;51.888;5.186;2022-08-21T14:12:45;2.47;;;1.25;;
18726;SDS011;9492;51.888;5.186;2022-08-21T14:15:17;3.60;;;1.50;;
18726;SDS011;9492;51.888;5.186;2022-08-21T14:17:43;3.85;;;1.40;;
18726;SDS011;9492;51.888;5.186;2022-08-21T14:20:11;2.35;;;1.10;;
18726;SDS011;9492;51.888;5.186;2022-08-21T14:22:40;2.60;;;1.38;;
18726;SDS011;9492;51.888;5.186;2022-08-21T14:28:25;2.70;;;1.20;;
18726;SDS011;9492;51.888;5.186;2022-08-21T14:30:29;2.83;;;1.40;;
18726;SDS011;9492;51.888;5.186;2022-08-21T14:32:56;3.10;;;1.50;;
18726;SDS011;9492;51.888;5.186;2022-08-21T14:35:22;2.80;;;1.58;;
18726;SDS011;9492;51.888;5.186;2022-08-21T14:37:48;4.50;;;1.40;;
18726;SDS011;9492;51.888;5.186;2022-08-21T14:40:18;4.38;;;2.00;;
18726;SDS011;9492;51.888;5.186;2022-08-21T14:42:44;3.17;;;1.23;;
18726;SDS011;9492;51.888;5.186;2022-08-21T14:45:15;2.60;;;1.08;;
18726;SDS011;9492;51.888;5.186;2022-08-21T14:47:42;3.83;;;1.52;;
18726;SDS011;9492;51.888;5.186;2022-08-21T14:50:08;3.60;;;1.52;;
18726;SDS011;9492;51.888;5.186;2022-08-21T14:52:35;2.42;;;1.80;;
18726;SDS011;9492;51.888;5.186;2022-08-21T14:55:01;2.15;;;1.40;;
18726;SDS011;9492;51.888;5.186;2022-08-21T14:57:27;3.25;;;1.40;;
18726;SDS011;9492;51.888;5.186;2022-08-21T14:59:55;7.15;;;1.48;;
18726;SDS011;9492;51.888;5.186;2022-08-21T15:02:21;5.20;;;1.70;;
18726;SDS011;9492;51.888;5.186;2022-08-21T15:04:48;3.20;;;1.45;;
18726;SDS011;9492;51.888;5.186;2022-08-21T15:07:14;5.03;;;1.52;;
18726;SDS011;9492;51.888;5.186;2022-08-21T15:09:40;3.58;;;1.52;;
18726;SDS011;9492;51.888;5.186;2022-08-21T15:12:06;2.70;;;1.48;;
18726;SDS011;9492;51.888;5.186;2022-08-21T15:14:33;3.10;;;1.37;;
18726;SDS011;9492;51.888;5.186;2022-08-21T15:17:00;4.90;;;1.37;;
18726;SDS011;9492;51.888;5.186;2022-08-21T15:19:28;3.47;;;1.70;;
18726;SDS011;9492;51.888;5.186;2022-08-21T15:21:54;3.77;;;1.53;;
18726;SDS011;9492;51.888;5.186;2022-08-21T15:24:20;6.27;;;1.93;;
18726;SDS011;9492;51.888;5.186;2022-08-21T15:26:47;5.00;;;1.40;;
18726;SDS011;9492;51.888;5.186;2022-08-21T15:29:13;5.37;;;1.90;;
18726;SDS011;9492;51.888;5.186;2022-08-21T15:31:49;5.07;;;1.47;;
18726;SDS011;9492;51.888;5.186;2022-08-21T15:34:16;5.45;;;1.35;;
18726;SDS011;9492;51.888;5.186;2022-08-21T15:36:42;3.43;;;1.23;;
18726;SDS011;9492;51.888;5.186;2022-08-21T15:39:08;3.47;;;1.42;;
18726;SDS011;9492;51.888;5.186;2022-08-21T15:41:34;4.43;;;1.50;;
18726;SDS011;9492;51.888;5.186;2022-08-21T15:44:00;5.50;;;1.67;;
18726;SDS011;9492;51.888;5.186;2022-08-21T15:46:26;3.67;;;1.50;;
18726;SDS011;9492;51.888;5.186;2022-08-21T15:48:52;4.00;;;1.57;;
18726;SDS011;9492;51.888;5.186;2022-08-21T15:51:18;4.28;;;1.40;;
18726;SDS011;9492;51.888;5.186;2022-08-21T15:53:44;4.05;;;1.45;;
18726;SDS011;9492;51.888;5.186;2022-08-21T15:56:14;2.92;;;1.50;;
18726;SDS011;9492;51.888;5.186;2022-08-21T15:58:43;3.65;;;1.63;;
18726;SDS011;9492;51.888;5.186;2022-08-21T16:01:09;2.97;;;1.47;;
18726;SDS011;9492;51.888;5.186;2022-08-21T16:03:35;4.10;;;1.83;;
18726;SDS011;9492;51.888;5.186;2022-08-21T16:06:01;3.28;;;1.55;;
18726;SDS011;9492;51.888;5.186;2022-08-21T16:08:27;7.77;;;2.13;;
18726;SDS011;9492;51.888;5.186;2022-08-21T16:10:53;2.63;;;1.73;;
18726;SDS011;9492;51.888;5.186;2022-08-21T16:13:22;4.38;;;1.70;;
18726;SDS011;9492;51.888;5.186;2022-08-21T16:15:50;3.92;;;1.40;;
18726;SDS011;9492;51.888;5.186;2022-08-21T16:18:16;5.40;;;1.70;;
18726;SDS011;9492;51.888;5.186;2022-08-21T16:20:43;3.30;;;1.53;;
18726;SDS011;9492;51.888;5.186;2022-08-21T16:23:09;5.05;;;1.80;;
18726;SDS011;9492;51.888;5.186;2022-08-21T16:25:38;5.07;;;2.03;;
18726;SDS011;9492;51.888;5.186;2022-08-21T16:28:06;4.05;;;2.22;;